createdAt,value
2019-02-16T00:01:18.401Z,80.85
2019-02-16T00:03:47.406Z,80.90
2019-02-16T00:06:16.557Z,81.54
2019-02-16T00:08:45.546Z,82.79
2019-02-16T00:11:14.711Z,82.71
2019-02-16T00:13:45.482Z,80.61
2019-02-16T00:16:14.602Z,85.12
2019-02-16T00:18:43.727Z,82.99
2019-02-16T00:21:13.866Z,81.65
2019-02-16T00:23:42.947Z,81.65
2019-02-16T00:26:12.076Z,86.41
2019-02-16T00:28:41.050Z,84.36
2019-02-16T00:31:10.228Z,84.83
2019-02-16T00:33:39.287Z,84.66
2019-02-16T00:36:08.384Z,84.66
2019-02-16T00:38:37.383Z,83.67
2019-02-16T00:41:06.406Z,83.59
2019-02-16T00:43:35.369Z,84.56
2019-02-16T00:46:04.421Z,86.20
2019-02-16T00:48:34.831Z,86.20
2019-02-16T00:51:12.968Z,86.46
2019-02-16T00:53:34.621Z,86.46
2019-02-16T00:56:07.172Z,88.30
2019-02-16T00:58:38.948Z,88.36
2019-02-16T01:01:07.977Z,86.30
2019-02-16T01:03:36.983Z,84.68
2019-02-16T01:06:06.080Z,84.43
2019-02-16T01:08:37.622Z,84.43
2019-02-16T01:11:06.825Z,84.04
2019-02-16T01:13:38.305Z,85.14
2019-02-16T01:16:07.406Z,88.94
2019-02-16T01:18:36.432Z,87.70
2019-02-16T01:21:05.543Z,86.61
2019-02-16T01:23:36.593Z,88.29
2019-02-16T01:26:05.666Z,88.29
2019-02-16T01:28:34.726Z,85.68
2019-02-16T01:31:03.808Z,84.67
2019-02-16T01:33:32.874Z,85.42
2019-02-16T01:36:01.982Z,84.45
2019-02-16T01:38:31.155Z,83.94
2019-02-16T01:41:00.269Z,83.94
2019-02-16T01:43:30.470Z,84.64
2019-02-16T01:45:59.509Z,85.90
2019-02-16T01:48:28.485Z,86.45
2019-02-16T01:50:57.530Z,88.50
2019-02-16T01:53:26.616Z,89.85
2019-02-16T01:55:55.719Z,85.96
2019-02-16T01:58:24.738Z,88.67
2019-02-16T02:00:53.895Z,85.73
2019-02-16T02:03:24.155Z,84.68
2019-02-16T02:05:53.204Z,85.21
2019-02-16T02:08:22.337Z,85.91
2019-02-16T02:10:51.418Z,85.91
2019-02-16T02:13:20.540Z,88.81
2019-02-16T02:15:49.613Z,86.49
2019-02-16T02:18:18.704Z,85.69
2019-02-16T02:20:47.763Z,85.69
2019-02-16T02:23:16.859Z,87.36
2019-02-16T02:25:45.907Z,86.36
2019-02-16T02:28:14.956Z,88.97
2019-02-16T02:30:44.141Z,86.06
2019-02-16T02:33:13.210Z,86.06
2019-02-16T02:35:42.277Z,85.38
2019-02-16T02:38:11.326Z,85.48
2019-02-16T02:40:40.397Z,85.53
2019-02-16T02:43:09.454Z,86.18
2019-02-16T02:45:38.513Z,84.86
2019-02-16T02:48:07.563Z,85.14
2019-02-16T02:50:36.665Z,84.26
2019-02-16T02:53:05.707Z,86.09
2019-02-16T02:55:34.852Z,84.90
2019-02-16T02:58:03.926Z,84.41
2019-02-16T03:00:33.167Z,84.41
2019-02-16T03:03:02.207Z,84.29
2019-02-16T03:05:31.264Z,84.31
2019-02-16T03:08:00.435Z,83.60
2019-02-16T03:10:29.563Z,83.94
2019-02-16T03:12:58.750Z,83.91
2019-02-16T03:15:27.877Z,84.13
2019-02-16T03:17:56.997Z,84.13
2019-02-16T03:20:26.063Z,83.45
2019-02-16T03:23:16.956Z,83.45
2019-02-16T03:26:27.144Z,83.64
2019-02-16T03:29:18.064Z,83.64
2019-02-16T03:32:24.120Z,84.02
2019-02-16T03:35:14.878Z,85.25
2019-02-16T03:37:52.302Z,85.25
2019-02-16T03:40:21.511Z,83.78
2019-02-16T03:42:50.555Z,84.99
2019-02-16T03:45:19.662Z,83.17
2019-02-16T03:47:51.489Z,83.98
2019-02-16T03:50:20.541Z,84.86
2019-02-16T03:52:49.641Z,85.74
2019-02-16T03:55:18.692Z,84.41
2019-02-16T03:57:47.745Z,84.14
2019-02-16T04:00:17.822Z,84.03
2019-02-16T04:02:46.842Z,83.95
2019-02-16T04:05:15.971Z,84.27
2019-02-16T04:07:45.114Z,85.19
2019-02-16T04:10:14.279Z,85.19
2019-02-16T04:12:43.414Z,84.11
2019-02-16T04:15:12.610Z,84.63
2019-02-16T04:17:41.631Z,84.54
2019-02-16T04:20:10.855Z,84.67
2019-02-16T04:22:39.868Z,86.72
2019-02-16T04:25:09.002Z,88.27
2019-02-16T04:27:38.129Z,87.96
2019-02-16T04:30:07.855Z,88.54
2019-02-16T04:32:39.205Z,86.50
2019-02-16T04:35:08.388Z,87.02
2019-02-16T04:37:37.451Z,86.28
2019-02-16T04:40:09.214Z,87.54
2019-02-16T04:42:40.775Z,87.54
2019-02-16T04:45:09.913Z,89.03
2019-02-16T04:47:38.914Z,87.76
2019-02-16T04:50:14.121Z,89.14
2019-02-16T04:52:43.138Z,89.14
2019-02-16T04:55:13.959Z,89.73
2019-02-16T04:57:42.987Z,87.88
2019-02-16T05:00:14.864Z,89.59
2019-02-16T05:02:43.855Z,90.61
2019-02-16T05:05:14.644Z,90.06
2019-02-16T05:07:43.634Z,89.38
2019-02-16T05:10:12.861Z,88.69
2019-02-16T05:12:43.495Z,88.37
2019-02-16T05:17:46.893Z,89.11
2019-02-16T05:22:51.029Z,90.79
2019-02-16T05:25:24.201Z,90.14
2019-02-16T05:27:53.169Z,88.90
2019-02-16T05:32:58.345Z,92.79
2019-02-16T05:35:27.382Z,89.30
2019-02-16T05:37:56.382Z,88.38
2019-02-16T05:40:26.954Z,90.06
2019-02-16T05:42:55.969Z,92.42
2019-02-16T05:45:25.080Z,92.42
2019-02-16T05:47:54.283Z,89.75
2019-02-16T05:50:23.381Z,90.69
2019-02-16T05:52:54.599Z,91.21
2019-02-16T05:55:23.282Z,90.74
2019-02-16T05:57:52.298Z,90.74
2019-02-16T06:00:24.723Z,89.48
2019-02-16T06:02:53.762Z,89.65
2019-02-16T06:05:22.872Z,89.65
2019-02-16T06:07:54.967Z,90.19
2019-02-16T06:10:25.432Z,90.40
2019-02-16T06:12:55.498Z,91.18
2019-02-16T06:15:24.496Z,93.41
2019-02-16T06:17:53.528Z,91.24
2019-02-16T06:20:22.600Z,92.34
2019-02-16T06:22:51.636Z,92.25
2019-02-16T06:25:20.648Z,92.54
2019-02-16T06:27:49.670Z,92.54
2019-02-16T06:30:18.673Z,91.72
2019-02-16T06:32:47.727Z,92.93
2019-02-16T06:35:44.697Z,92.93
2019-02-16T06:38:17.994Z,94.84
2019-02-16T06:40:47.079Z,93.15
2019-02-16T06:43:16.149Z,92.49
2019-02-16T06:45:45.142Z,93.03
2019-02-16T06:48:14.361Z,93.33
2019-02-16T06:50:43.368Z,92.36
2019-02-16T06:53:13.589Z,94.42
2019-02-16T06:55:47.572Z,94.42
2019-02-16T06:58:16.556Z,93.28
2019-02-16T07:00:45.661Z,91.64
2019-02-16T07:03:14.682Z,92.77
2019-02-16T07:05:43.763Z,93.32
2019-02-16T07:08:12.791Z,93.24
2019-02-16T07:10:41.946Z,92.29
2019-02-16T07:13:19.069Z,91.87
2019-02-16T07:16:08.325Z,92.30
2019-02-16T07:18:45.688Z,93.03
2019-02-16T07:21:14.850Z,94.69
2019-02-16T07:23:45.691Z,95.82
2019-02-16T07:26:14.987Z,96.51
2019-02-16T07:28:44.132Z,94.14
2019-02-16T07:31:13.124Z,93.46
2019-02-16T07:33:42.176Z,92.93
2019-02-16T07:36:11.287Z,92.98
2019-02-16T07:38:40.573Z,92.98
2019-02-16T07:41:09.668Z,91.76
2019-02-16T07:44:01.037Z,91.76
2019-02-16T07:46:55.221Z,91.10
2019-02-16T07:49:29.280Z,91.61
2019-02-16T07:52:04.985Z,92.26
2019-02-16T07:55:00.279Z,90.43
2019-02-16T07:57:54.380Z,89.80
2019-02-16T08:00:57.215Z,90.23
2019-02-16T08:03:45.205Z,89.19
2019-02-16T08:06:32.105Z,87.66
2019-02-16T08:09:14.226Z,87.98
2019-02-16T08:12:00.476Z,86.86
2019-02-16T08:14:35.894Z,89.26
2019-02-16T08:17:17.536Z,87.05
2019-02-16T08:19:56.993Z,86.44
2019-02-16T08:22:39.141Z,85.68
2019-02-16T08:25:27.179Z,85.66
2019-02-16T08:28:01.539Z,84.67
2019-02-16T08:30:52.626Z,85.04
2019-02-16T08:33:30.240Z,84.43
2019-02-16T08:36:07.147Z,84.11
2019-02-16T08:38:54.056Z,83.86
2019-02-16T08:41:51.382Z,84.21
2019-02-16T08:44:34.616Z,84.21
2019-02-16T08:47:16.740Z,84.49
2019-02-16T08:53:10.981Z,83.09
2019-02-16T08:55:55.421Z,82.93
2019-02-16T08:58:55.540Z,82.36
2019-02-16T09:01:42.329Z,82.33
2019-02-16T09:04:26.440Z,81.50
2019-02-16T09:07:20.724Z,81.37
2019-02-16T09:10:00.856Z,81.39
2019-02-16T09:12:48.887Z,80.48
2019-02-16T09:15:50.335Z,79.84
2019-02-16T09:18:44.200Z,79.61
2019-02-16T09:21:35.226Z,78.11
2019-02-16T09:24:23.367Z,79.51
2019-02-16T09:27:26.698Z,80.42
2019-02-16T09:30:23.663Z,80.42
2019-02-16T09:33:10.481Z,74.53
2019-02-16T09:35:57.229Z,73.54
2019-02-16T09:38:32.675Z,71.50
2019-02-16T09:41:26.773Z,71.41
2019-02-16T09:44:06.605Z,70.06
2019-02-16T09:46:46.866Z,69.34
2019-02-16T09:49:40.657Z,68.78
2019-02-16T09:52:46.795Z,68.47
2019-02-16T09:55:39.487Z,67.29
2019-02-16T09:58:22.879Z,67.23
2019-02-16T10:01:07.629Z,66.92
2019-02-16T10:03:53.453Z,68.43
2019-02-16T10:06:49.844Z,68.43
2019-02-16T10:09:24.830Z,66.24
2019-02-16T10:12:22.044Z,66.07
2019-02-16T10:15:25.270Z,64.10
2019-02-16T10:18:22.198Z,64.23
2019-02-16T10:21:10.207Z,64.12
2019-02-16T10:24:07.233Z,64.00
2019-02-16T10:26:42.695Z,64.00
2019-02-16T10:29:33.919Z,64.19
2019-02-16T10:32:33.974Z,64.25
2019-02-16T10:35:23.599Z,63.49
2019-02-16T10:38:14.678Z,62.67
2019-02-16T10:41:14.515Z,63.05
2019-02-16T10:44:11.439Z,62.48
2019-02-16T10:46:50.396Z,64.13
2019-02-16T10:49:37.481Z,64.13
2019-02-16T10:52:17.044Z,62.24
2019-02-16T10:55:05.034Z,62.94
2019-02-16T10:57:44.943Z,63.33
2019-02-16T11:00:31.798Z,62.48
2019-02-16T11:03:22.806Z,63.16
2019-02-16T11:06:08.024Z,62.92
2019-02-16T11:08:55.077Z,63.87
2019-02-16T11:11:32.215Z,64.51
2019-02-16T11:14:33.200Z,63.75
2019-02-16T11:17:21.224Z,63.75
2019-02-16T11:20:11.490Z,63.50
2019-02-16T11:23:08.521Z,63.50
2019-02-16T11:25:55.168Z,64.70
2019-02-16T11:28:52.424Z,64.70
2019-02-16T11:31:30.986Z,63.26
2019-02-16T11:34:17.601Z,64.21
2019-02-16T11:36:57.868Z,64.18
2019-02-16T11:39:44.779Z,62.34
2019-02-16T11:42:23.610Z,64.12
2019-02-16T11:45:17.334Z,63.24
2019-02-16T11:48:11.325Z,63.24
2019-02-16T11:51:05.463Z,63.44
2019-02-16T11:53:40.005Z,61.29
2019-02-16T11:56:26.625Z,61.14
2019-02-16T11:59:13.355Z,61.00
2019-02-16T12:02:00.023Z,61.00
2019-02-16T12:04:45.054Z,60.99
2019-02-16T12:07:25.218Z,62.09
2019-02-16T12:10:04.028Z,61.33
2019-02-16T12:12:41.506Z,61.16
2019-02-16T12:15:33.286Z,61.16
2019-02-16T12:18:27.227Z,59.99
2019-02-16T12:21:29.425Z,58.20
2019-02-16T12:24:23.650Z,58.20
2019-02-16T12:27:01.246Z,60.49
2019-02-16T12:29:44.525Z,60.34
2019-02-16T12:32:32.478Z,59.40
2019-02-16T12:35:34.359Z,59.50
2019-02-16T12:38:21.114Z,57.80
2019-02-16T12:41:17.915Z,57.89
2019-02-16T12:44:11.872Z,58.37
2019-02-16T12:47:12.036Z,56.14
2019-02-16T12:50:08.851Z,58.30
2019-02-16T12:52:56.822Z,57.67
2019-02-16T12:55:38.208Z,55.55
2019-02-16T12:58:28.430Z,55.71
2019-02-16T13:01:19.839Z,55.71
2019-02-16T13:04:15.579Z,55.91
2019-02-16T13:07:03.280Z,55.91
2019-02-16T13:09:42.219Z,56.71
2019-02-16T13:12:45.340Z,56.53
2019-02-16T13:15:40.532Z,56.53
2019-02-16T13:18:31.724Z,56.59
2019-02-16T13:21:26.250Z,56.67
2019-02-16T13:24:12.963Z,56.38
2019-02-16T13:26:57.350Z,57.35
2019-02-16T13:29:46.563Z,57.53
2019-02-16T13:32:43.619Z,58.69
2019-02-16T13:35:32.771Z,59.12
2019-02-16T13:38:21.606Z,59.02
2019-02-16T13:41:19.006Z,58.22
2019-02-16T13:44:04.141Z,59.30
2019-02-16T13:46:54.453Z,58.67
2019-02-16T13:49:28.711Z,59.89
2019-02-16T13:52:08.619Z,59.65
2019-02-16T13:54:46.063Z,57.01
2019-02-16T13:57:30.603Z,58.83
2019-02-16T14:00:19.771Z,59.76
2019-02-16T14:03:08.939Z,59.76
2019-02-16T14:05:55.747Z,57.00
2019-02-16T14:08:42.589Z,58.65
2019-02-16T14:11:29.602Z,58.65
2019-02-16T14:14:26.270Z,59.11
2019-02-16T14:17:14.462Z,59.52
2019-02-16T14:19:48.567Z,59.29
2019-02-16T14:22:17.600Z,59.14
2019-02-16T14:24:52.652Z,59.22
2019-02-16T14:27:21.760Z,58.86
2019-02-16T14:29:50.779Z,58.19
2019-02-16T14:32:20.038Z,58.16
2019-02-16T14:34:49.017Z,59.58
2019-02-16T14:37:34.882Z,59.04
2019-02-16T14:40:04.230Z,59.04
2019-02-16T14:42:33.269Z,58.62
2019-02-16T14:45:02.594Z,58.62
2019-02-16T14:52:43.668Z,58.67
2019-02-16T14:55:13.561Z,59.08
2019-02-16T14:57:42.784Z,60.47
2019-02-16T15:00:12.192Z,61.33
2019-02-16T15:02:41.267Z,60.38
2019-02-16T15:05:13.985Z,62.23
2019-02-16T15:07:43.111Z,62.45
2019-02-16T15:12:47.180Z,60.79
2019-02-16T15:15:19.638Z,60.85
2019-02-16T15:17:48.665Z,60.61
2019-02-16T15:22:56.022Z,61.07
2019-02-16T15:25:25.936Z,62.11
2019-02-16T15:27:57.390Z,62.11
2019-02-16T15:33:02.310Z,61.72
2019-02-16T15:35:31.629Z,61.54
2019-02-16T15:38:00.933Z,61.54
2019-02-16T15:40:30.092Z,62.69
2019-02-16T15:43:02.013Z,62.55
2019-02-16T15:45:31.227Z,64.36
2019-02-16T15:48:00.287Z,62.71
2019-02-16T15:50:29.453Z,62.71
2019-02-16T15:52:58.614Z,64.12
2019-02-16T15:55:29.750Z,62.98
2019-02-16T15:57:58.534Z,62.98
2019-02-16T16:00:28.509Z,63.80
2019-02-16T16:02:59.547Z,63.78
2019-02-16T16:05:28.478Z,63.93
2019-02-16T16:08:18.706Z,63.64
2019-02-16T16:11:09.640Z,63.62
2019-02-16T16:13:56.543Z,65.97
2019-02-16T16:16:35.702Z,64.11
2019-02-16T16:19:33.245Z,65.37
2019-02-16T16:22:17.402Z,65.57
2019-02-16T16:25:05.731Z,65.93
2019-02-16T16:27:41.311Z,65.93
2019-02-16T16:30:32.856Z,65.99
2019-02-16T16:33:10.985Z,65.65
2019-02-16T16:35:58.126Z,65.05
2019-02-16T16:38:35.236Z,67.11
2019-02-16T16:41:24.809Z,67.92
2019-02-16T16:44:14.878Z,69.67
2019-02-16T16:47:05.000Z,70.62
2019-02-16T16:49:42.737Z,70.42
2019-02-16T16:52:29.568Z,70.42
2019-02-16T16:55:20.521Z,72.91
2019-02-16T16:58:14.565Z,74.07
2019-02-16T17:00:53.135Z,74.05
2019-02-16T17:06:31.505Z,75.01
2019-02-16T17:10:08.113Z,75.58
2019-02-16T17:17:24.868Z,76.78
2019-02-16T17:32:58.692Z,79.34
2019-02-16T17:47:38.417Z,80.25
2019-02-16T18:14:36.039Z,83.14
2019-02-16T18:17:42.267Z,83.71
2019-02-16T18:20:17.164Z,83.71
2019-02-16T18:23:15.689Z,83.96
2019-02-16T18:26:15.981Z,83.28
2019-02-16T18:29:03.772Z,84.03
2019-02-16T18:31:57.905Z,84.91
2019-02-16T18:34:58.485Z,84.32
2019-02-16T18:37:46.496Z,84.37
2019-02-16T18:40:36.379Z,84.65
2019-02-16T18:43:42.322Z,83.98
2019-02-16T18:46:19.029Z,84.00
2019-02-16T18:49:27.677Z,84.79
2019-02-16T18:52:29.035Z,85.21
2019-02-16T18:55:10.949Z,84.26
2019-02-16T18:58:19.301Z,85.01
2019-02-16T19:01:06.619Z,85.40
2019-02-16T19:04:01.691Z,85.40
2019-02-16T19:06:48.250Z,86.15
2019-02-16T19:09:24.331Z,85.92
2019-02-16T19:11:59.171Z,86.37
2019-02-16T22:00:29.735Z,92.90
2019-02-16T22:14:41.099Z,92.61
2019-02-16T22:20:57.127Z,95.61
2019-02-16T22:23:26.222Z,96.14
2019-02-16T22:25:55.626Z,95.93
2019-02-16T22:28:56.604Z,95.93
2019-02-16T22:31:31.915Z,93.75
2019-02-16T22:34:08.342Z,93.34
2019-02-16T22:36:37.450Z,93.40
2019-02-16T22:39:07.240Z,92.69
2019-02-16T22:41:36.358Z,93.36
2019-02-16T22:44:05.635Z,93.95
2019-02-16T22:46:34.751Z,94.64
2019-02-16T22:49:03.762Z,94.22
2019-02-16T22:51:32.923Z,92.66
2019-02-16T22:54:03.240Z,91.80
2019-02-16T22:56:32.252Z,93.26
2019-02-16T22:59:01.554Z,93.55
2019-02-16T23:01:31.064Z,94.17
2019-02-16T23:04:00.100Z,94.02
2019-02-16T23:06:29.121Z,94.02
2019-02-16T23:08:58.185Z,92.83
2019-02-16T23:11:27.270Z,92.83
2019-02-16T23:13:56.363Z,93.85
2019-02-16T23:16:25.498Z,93.88
2019-02-16T23:18:54.561Z,94.88
2019-02-16T23:21:23.689Z,94.88
2019-02-16T23:23:52.975Z,95.34
2019-02-16T23:26:24.397Z,96.43
2019-02-16T23:28:53.387Z,94.13
2019-02-16T23:31:22.714Z,95.94
2019-02-16T23:33:51.735Z,96.36
2019-02-16T23:36:20.746Z,95.12
2019-02-16T23:38:49.805Z,94.87
2019-02-16T23:41:20.260Z,94.87
2019-02-16T23:43:49.277Z,94.40
2019-02-16T23:46:18.458Z,94.45
2019-02-16T23:48:47.543Z,94.87
2019-02-16T23:51:18.745Z,95.27
2019-02-16T23:53:47.866Z,94.47
2019-02-16T23:56:16.866Z,94.47
2019-02-16T23:58:49.294Z,94.13
